sensor_id;sensor_type;location;lat;lon;timestamp;pressure;altitude;pressure_sealevel;temperature;humidity
61357;BME280;47227;46.752;23.576;2023-11-18T00:00:32;95293.62;;;4.10;89.85
61357;BME280;47227;46.752;23.576;2023-11-18T00:03:21;95296.45;;;4.07;90.09
61357;BME280;47227;46.752;23.576;2023-11-18T00:05:50;95299.42;;;4.02;90.37
61357;BME280;47227;46.752;23.576;2023-11-18T00:08:18;95304.44;;;3.96;90.45
61357;BME280;47227;46.752;23.576;2023-11-18T00:10:47;95306.06;;;3.92;90.99
61357;BME280;47227;46.752;23.576;2023-11-18T00:13:15;95310.91;;;3.83;91.25
61357;BME280;47227;46.752;23.576;2023-11-18T00:15:44;95312.80;;;3.74;91.20
61357;BME280;47227;46.752;23.576;2023-11-18T00:18:14;95311.27;;;3.70;91.47
61357;BME280;47227;46.752;23.576;2023-11-18T00:20:42;95311.40;;;3.64;91.65
61357;BME280;47227;46.752;23.576;2023-11-18T00:23:11;95318.02;;;3.61;91.59
61357;BME280;47227;46.752;23.576;2023-11-18T00:25:40;95318.15;;;3.59;91.67
61357;BME280;47227;46.752;23.576;2023-11-18T00:28:08;95319.51;;;3.57;91.60
61357;BME280;47227;46.752;23.576;2023-11-18T00:30:37;95322.03;;;3.57;91.44
61357;BME280;47227;46.752;23.576;2023-11-18T00:33:06;95322.86;;;3.57;91.41
61357;BME280;47227;46.752;23.576;2023-11-18T00:35:35;95325.41;;;3.59;91.38
61357;BME280;47227;46.752;23.576;2023-11-18T00:38:03;95322.52;;;3.60;91.26
61357;BME280;47227;46.752;23.576;2023-11-18T00:40:32;95324.65;;;3.63;91.33
61357;BME280;47227;46.752;23.576;2023-11-18T00:43:00;95326.17;;;3.64;91.36
61357;BME280;47227;46.752;23.576;2023-11-18T00:45:30;95325.30;;;3.64;91.42
61357;BME280;47227;46.752;23.576;2023-11-18T00:47:58;95329.41;;;3.62;91.16
61357;BME280;47227;46.752;23.576;2023-11-18T00:50:27;95328.36;;;3.64;91.17
61357;BME280;47227;46.752;23.576;2023-11-18T00:52:55;95327.69;;;3.66;91.03
61357;BME280;47227;46.752;23.576;2023-11-18T00:55:25;95333.01;;;3.68;91.13
61357;BME280;47227;46.752;23.576;2023-11-18T00:57:54;95336.09;;;3.67;90.92
61357;BME280;47227;46.752;23.576;2023-11-18T01:00:22;95336.21;;;3.67;91.06
61357;BME280;47227;46.752;23.576;2023-11-18T01:02:51;95336.08;;;3.66;90.93
61357;BME280;47227;46.752;23.576;2023-11-18T01:05:20;95338.13;;;3.67;91.21
61357;BME280;47227;46.752;23.576;2023-11-18T01:07:49;95342.39;;;3.67;91.27
61357;BME280;47227;46.752;23.576;2023-11-18T01:10:18;95340.54;;;3.66;91.11
61357;BME280;47227;46.752;23.576;2023-11-18T01:12:47;95339.84;;;3.64;91.25
61357;BME280;47227;46.752;23.576;2023-11-18T01:15:15;95342.70;;;3.63;90.99
61357;BME280;47227;46.752;23.576;2023-11-18T01:17:44;95345.48;;;3.62;91.07
61357;BME280;47227;46.752;23.576;2023-11-18T01:20:13;95342.12;;;3.60;91.05
61357;BME280;47227;46.752;23.576;2023-11-18T01:22:42;95346.68;;;3.59;90.90
61357;BME280;47227;46.752;23.576;2023-11-18T01:25:14;95350.44;;;3.58;90.87
61357;BME280;47227;46.752;23.576;2023-11-18T01:27:45;95355.26;;;3.54;90.80
61357;BME280;47227;46.752;23.576;2023-11-18T01:30:17;95357.42;;;3.49;90.69
61357;BME280;47227;46.752;23.576;2023-11-18T01:32:46;95359.67;;;3.42;90.86
61357;BME280;47227;46.752;23.576;2023-11-18T01:35:15;95360.73;;;3.37;90.68
61357;BME280;47227;46.752;23.576;2023-11-18T01:37:44;95361.17;;;3.33;90.77
61357;BME280;47227;46.752;23.576;2023-11-18T01:40:13;95363.13;;;3.33;90.42
61357;BME280;47227;46.752;23.576;2023-11-18T01:42:44;95361.46;;;3.31;90.67
61357;BME280;47227;46.752;23.576;2023-11-18T01:45:15;95365.36;;;3.26;90.54
61357;BME280;47227;46.752;23.576;2023-11-18T01:47:45;95366.88;;;3.23;90.60
61357;BME280;47227;46.752;23.576;2023-11-18T01:50:17;95365.32;;;3.20;91.00
61357;BME280;47227;46.752;23.576;2023-11-18T01:52:47;95368.38;;;3.16;90.95
61357;BME280;47227;46.752;23.576;2023-11-18T01:55:16;95367.90;;;3.13;91.25
61357;BME280;47227;46.752;23.576;2023-11-18T01:57:45;95362.95;;;3.10;91.16
61357;BME280;47227;46.752;23.576;2023-11-18T02:00:14;95368.98;;;3.07;91.24
61357;BME280;47227;46.752;23.576;2023-11-18T02:02:46;95376.98;;;3.08;91.44
61357;BME280;47227;46.752;23.576;2023-11-18T02:05:15;95380.24;;;3.10;91.58
61357;BME280;47227;46.752;23.576;2023-11-18T02:07:45;95381.75;;;3.15;91.56
61357;BME280;47227;46.752;23.576;2023-11-18T02:10:14;95380.34;;;3.18;91.42
61357;BME280;47227;46.752;23.576;2023-11-18T02:12:53;95378.84;;;3.23;91.51
61357;BME280;47227;46.752;23.576;2023-11-18T02:15:24;95382.70;;;3.26;91.19
61357;BME280;47227;46.752;23.576;2023-11-18T02:17:57;95385.76;;;3.30;91.52
61357;BME280;47227;46.752;23.576;2023-11-18T02:20:26;95383.22;;;3.34;91.40
61357;BME280;47227;46.752;23.576;2023-11-18T02:22:57;95390.05;;;3.38;91.34
61357;BME280;47227;46.752;23.576;2023-11-18T02:25:27;95391.16;;;3.43;91.21
61357;BME280;47227;46.752;23.576;2023-11-18T02:27:57;95394.87;;;3.49;91.24
61357;BME280;47227;46.752;23.576;2023-11-18T02:30:26;95391.76;;;3.49;91.28
61357;BME280;47227;46.752;23.576;2023-11-18T02:33:01;95401.36;;;3.50;91.22
61357;BME280;47227;46.752;23.576;2023-11-18T02:35:53;95402.29;;;3.52;91.27
61357;BME280;47227;46.752;23.576;2023-11-18T02:38:30;95407.23;;;3.50;91.08
61357;BME280;47227;46.752;23.576;2023-11-18T02:41:11;95407.69;;;3.43;90.92
61357;BME280;47227;46.752;23.576;2023-11-18T02:43:41;95411.73;;;3.39;90.77
61357;BME280;47227;46.752;23.576;2023-11-18T02:46:10;95412.63;;;3.37;90.67
61357;BME280;47227;46.752;23.576;2023-11-18T02:48:43;95415.54;;;3.35;90.49
61357;BME280;47227;46.752;23.576;2023-11-18T02:51:11;95418.48;;;3.34;90.45
61357;BME280;47227;46.752;23.576;2023-11-18T02:53:40;95418.42;;;3.34;90.28
61357;BME280;47227;46.752;23.576;2023-11-18T02:56:09;95420.49;;;3.32;90.03
61357;BME280;47227;46.752;23.576;2023-11-18T02:58:38;95421.98;;;3.31;90.20
61357;BME280;47227;46.752;23.576;2023-11-18T03:01:06;95426.77;;;3.32;90.29
61357;BME280;47227;46.752;23.576;2023-11-18T03:03:35;95427.80;;;3.32;90.18
61357;BME280;47227;46.752;23.576;2023-11-18T03:06:04;95429.30;;;3.30;90.22
61357;BME280;47227;46.752;23.576;2023-11-18T03:08:34;95429.04;;;3.26;90.43
61357;BME280;47227;46.752;23.576;2023-11-18T03:11:02;95432.25;;;3.23;90.76
61357;BME280;47227;46.752;23.576;2023-11-18T03:13:33;95431.22;;;3.21;91.52
61357;BME280;47227;46.752;23.576;2023-11-18T03:16:05;95428.08;;;3.16;91.57
61357;BME280;47227;46.752;23.576;2023-11-18T03:18:35;95429.00;;;3.14;91.43
61357;BME280;47227;46.752;23.576;2023-11-18T03:21:13;95432.25;;;3.15;91.40
61357;BME280;47227;46.752;23.576;2023-11-18T03:23:42;95434.00;;;3.19;91.21
61357;BME280;47227;46.752;23.576;2023-11-18T03:26:11;95438.56;;;3.23;91.31
61357;BME280;47227;46.752;23.576;2023-11-18T03:28:40;95441.81;;;3.28;91.24
61357;BME280;47227;46.752;23.576;2023-11-18T03:31:08;95442.34;;;3.33;91.04
61357;BME280;47227;46.752;23.576;2023-11-18T03:33:37;95446.42;;;3.39;91.06
61357;BME280;47227;46.752;23.576;2023-11-18T03:36:06;95443.77;;;3.41;91.20
61357;BME280;47227;46.752;23.576;2023-11-18T03:38:34;95443.15;;;3.37;90.98
61357;BME280;47227;46.752;23.576;2023-11-18T03:41:03;95444.59;;;3.36;91.23
61357;BME280;47227;46.752;23.576;2023-11-18T03:43:32;95441.77;;;3.33;91.31
61357;BME280;47227;46.752;23.576;2023-11-18T03:46:00;95447.66;;;3.28;91.22
61357;BME280;47227;46.752;23.576;2023-11-18T03:48:28;95450.15;;;3.24;91.18
61357;BME280;47227;46.752;23.576;2023-11-18T03:50:57;95454.52;;;3.22;91.39
61357;BME280;47227;46.752;23.576;2023-11-18T03:53:25;95456.74;;;3.17;91.53
61357;BME280;47227;46.752;23.576;2023-11-18T03:55:54;95460.19;;;3.13;91.77
61357;BME280;47227;46.752;23.576;2023-11-18T03:58:22;95461.97;;;3.08;91.93
61357;BME280;47227;46.752;23.576;2023-11-18T04:00:51;95465.87;;;3.02;92.12
61357;BME280;47227;46.752;23.576;2023-11-18T04:03:20;95463.74;;;2.97;92.25
61357;BME280;47227;46.752;23.576;2023-11-18T04:05:48;95467.20;;;2.91;92.19
61357;BME280;47227;46.752;23.576;2023-11-18T04:08:17;95469.11;;;2.86;92.18
61357;BME280;47227;46.752;23.576;2023-11-18T04:10:45;95470.23;;;2.79;92.19
61357;BME280;47227;46.752;23.576;2023-11-18T04:13:14;95472.21;;;2.76;92.18
61357;BME280;47227;46.752;23.576;2023-11-18T04:15:42;95481.67;;;2.70;91.88
61357;BME280;47227;46.752;23.576;2023-11-18T04:18:11;95480.80;;;2.66;91.93
61357;BME280;47227;46.752;23.576;2023-11-18T04:20:39;95481.20;;;2.60;92.11
61357;BME280;47227;46.752;23.576;2023-11-18T04:23:07;95483.21;;;2.53;92.07
61357;BME280;47227;46.752;23.576;2023-11-18T04:25:36;95478.55;;;2.42;91.80
61357;BME280;47227;46.752;23.576;2023-11-18T04:28:04;95486.33;;;2.28;90.92
61357;BME280;47227;46.752;23.576;2023-11-18T04:30:33;95485.07;;;2.15;90.74
61357;BME280;47227;46.752;23.576;2023-11-18T04:33:01;95484.89;;;2.08;90.95
61357;BME280;47227;46.752;23.576;2023-11-18T04:35:30;95485.27;;;1.97;91.20
61357;BME280;47227;46.752;23.576;2023-11-18T04:38:00;95486.05;;;1.89;91.30
61357;BME280;47227;46.752;23.576;2023-11-18T04:40:28;95491.95;;;1.84;91.57
61357;BME280;47227;46.752;23.576;2023-11-18T04:42:56;95506.15;;;1.79;91.67
61357;BME280;47227;46.752;23.576;2023-11-18T04:45:25;95502.59;;;1.68;91.47
61357;BME280;47227;46.752;23.576;2023-11-18T04:47:53;95505.60;;;1.61;91.65
61357;BME280;47227;46.752;23.576;2023-11-18T04:50:23;95512.34;;;1.58;91.77
61357;BME280;47227;46.752;23.576;2023-11-18T04:52:51;95515.48;;;1.57;91.88
61357;BME280;47227;46.752;23.576;2023-11-18T04:55:19;95514.23;;;1.54;92.05
61357;BME280;47227;46.752;23.576;2023-11-18T04:57:48;95518.53;;;1.54;92.22
61357;BME280;47227;46.752;23.576;2023-11-18T05:00:16;95513.63;;;1.49;92.31
61357;BME280;47227;46.752;23.576;2023-11-18T05:02:46;95515.33;;;1.49;92.26
61357;BME280;47227;46.752;23.576;2023-11-18T05:05:16;95513.52;;;1.46;92.44
61357;BME280;47227;46.752;23.576;2023-11-18T05:07:45;95515.74;;;1.41;92.64
61357;BME280;47227;46.752;23.576;2023-11-18T05:10:14;95521.39;;;1.40;92.92
61357;BME280;47227;46.752;23.576;2023-11-18T05:12:42;95523.73;;;1.42;92.75
61357;BME280;47227;46.752;23.576;2023-11-18T05:15:16;95531.36;;;1.41;92.86
61357;BME280;47227;46.752;23.576;2023-11-18T05:17:45;95530.52;;;1.42;92.94
61357;BME280;47227;46.752;23.576;2023-11-18T05:20:14;95532.27;;;1.42;92.66
61357;BME280;47227;46.752;23.576;2023-11-18T05:22:43;95534.39;;;1.41;92.84
61357;BME280;47227;46.752;23.576;2023-11-18T05:25:11;95535.80;;;1.43;92.68
61357;BME280;47227;46.752;23.576;2023-11-18T05:27:40;95537.23;;;1.42;92.35
61357;BME280;47227;46.752;23.576;2023-11-18T05:30:10;95536.42;;;1.38;92.35
61357;BME280;47227;46.752;23.576;2023-11-18T05:32:38;95538.14;;;1.37;92.40
61357;BME280;47227;46.752;23.576;2023-11-18T05:35:08;95537.98;;;1.36;92.38
61357;BME280;47227;46.752;23.576;2023-11-18T05:37:39;95543.52;;;1.33;92.15
61357;BME280;47227;46.752;23.576;2023-11-18T05:40:10;95544.83;;;1.28;92.11
61357;BME280;47227;46.752;23.576;2023-11-18T05:42:43;95546.87;;;1.25;92.14
61357;BME280;47227;46.752;23.576;2023-11-18T05:45:14;95546.45;;;1.20;92.54
61357;BME280;47227;46.752;23.576;2023-11-18T05:47:56;95544.17;;;1.14;92.68
61357;BME280;47227;46.752;23.576;2023-11-18T05:50:25;95557.43;;;1.10;92.82
61357;BME280;47227;46.752;23.576;2023-11-18T05:52:54;95558.67;;;1.07;93.00
61357;BME280;47227;46.752;23.576;2023-11-18T05:55:23;95559.04;;;1.03;93.21
61357;BME280;47227;46.752;23.576;2023-11-18T05:57:51;95565.65;;;1.00;93.22
61357;BME280;47227;46.752;23.576;2023-11-18T06:00:20;95567.24;;;0.98;93.31
61357;BME280;47227;46.752;23.576;2023-11-18T06:03:00;95571.73;;;0.97;93.51
61357;BME280;47227;46.752;23.576;2023-11-18T06:05:29;95571.70;;;0.96;93.87
61357;BME280;47227;46.752;23.576;2023-11-18T06:07:59;95576.49;;;0.99;93.94
61357;BME280;47227;46.752;23.576;2023-11-18T06:10:28;95577.73;;;1.01;93.88
61357;BME280;47227;46.752;23.576;2023-11-18T06:12:59;95579.41;;;1.04;93.65
61357;BME280;47227;46.752;23.576;2023-11-18T06:15:28;95583.02;;;1.08;93.53
61357;BME280;47227;46.752;23.576;2023-11-18T06:17:56;95589.28;;;1.11;93.33
61357;BME280;47227;46.752;23.576;2023-11-18T06:20:25;95585.91;;;1.15;92.85
61357;BME280;47227;46.752;23.576;2023-11-18T06:22:53;95594.46;;;1.15;92.53
61357;BME280;47227;46.752;23.576;2023-11-18T06:25:22;95595.78;;;1.17;92.39
61357;BME280;47227;46.752;23.576;2023-11-18T06:27:53;95591.77;;;1.17;92.20
61357;BME280;47227;46.752;23.576;2023-11-18T06:30:22;95600.73;;;1.21;92.27
61357;BME280;47227;46.752;23.576;2023-11-18T06:32:50;95598.40;;;1.21;91.80
61357;BME280;47227;46.752;23.576;2023-11-18T06:35:19;95608.40;;;1.20;91.75
61357;BME280;47227;46.752;23.576;2023-11-18T06:37:49;95611.02;;;1.21;91.78
61357;BME280;47227;46.752;23.576;2023-11-18T06:40:18;95615.14;;;1.23;91.73
61357;BME280;47227;46.752;23.576;2023-11-18T06:42:47;95620.90;;;1.22;91.82
61357;BME280;47227;46.752;23.576;2023-11-18T06:45:15;95620.33;;;1.20;91.81
61357;BME280;47227;46.752;23.576;2023-11-18T06:47:44;95626.95;;;1.19;91.97
61357;BME280;47227;46.752;23.576;2023-11-18T06:50:13;95625.46;;;1.16;91.78
61357;BME280;47227;46.752;23.576;2023-11-18T06:52:44;95632.77;;;1.16;92.02
61357;BME280;47227;46.752;23.576;2023-11-18T06:55:15;95632.23;;;1.12;91.95
61357;BME280;47227;46.752;23.576;2023-11-18T06:57:43;95635.78;;;1.08;92.02
61357;BME280;47227;46.752;23.576;2023-11-18T07:00:13;95641.26;;;1.10;92.15
61357;BME280;47227;46.752;23.576;2023-11-18T07:02:43;95646.90;;;1.11;92.35
61357;BME280;47227;46.752;23.576;2023-11-18T07:05:12;95652.42;;;1.12;92.21
61357;BME280;47227;46.752;23.576;2023-11-18T07:07:41;95654.71;;;1.13;92.27
61357;BME280;47227;46.752;23.576;2023-11-18T07:10:11;95660.42;;;1.15;92.36
61357;BME280;47227;46.752;23.576;2023-11-18T07:12:41;95659.12;;;1.17;92.09
61357;BME280;47227;46.752;23.576;2023-11-18T07:15:10;95660.32;;;1.17;92.10
61357;BME280;47227;46.752;23.576;2023-11-18T07:17:39;95663.84;;;1.20;92.35
61357;BME280;47227;46.752;23.576;2023-11-18T07:20:08;95664.71;;;1.23;92.08
61357;BME280;47227;46.752;23.576;2023-11-18T07:22:40;95666.54;;;1.22;91.90
61357;BME280;47227;46.752;23.576;2023-11-18T07:25:09;95674.40;;;1.22;92.05
61357;BME280;47227;46.752;23.576;2023-11-18T07:27:37;95675.20;;;1.22;91.81
61357;BME280;47227;46.752;23.576;2023-11-18T07:30:06;95684.17;;;1.24;91.79
61357;BME280;47227;46.752;23.576;2023-11-18T07:32:39;95681.95;;;1.24;91.90
61357;BME280;47227;46.752;23.576;2023-11-18T07:35:08;95685.01;;;1.24;91.59
61357;BME280;47227;46.752;23.576;2023-11-18T07:37:37;95685.17;;;1.23;91.61
61357;BME280;47227;46.752;23.576;2023-11-18T07:40:07;95688.11;;;1.24;91.65
61357;BME280;47227;46.752;23.576;2023-11-18T07:42:36;95692.65;;;1.22;91.63
61357;BME280;47227;46.752;23.576;2023-11-18T07:45:06;95689.66;;;1.23;91.61
61357;BME280;47227;46.752;23.576;2023-11-18T07:47:46;95698.45;;;1.19;91.35
61357;BME280;47227;46.752;23.576;2023-11-18T07:50:20;95697.27;;;1.11;91.10
61357;BME280;47227;46.752;23.576;2023-11-18T07:52:49;95701.52;;;1.09;91.40
61357;BME280;47227;46.752;23.576;2023-11-18T07:55:18;95705.50;;;1.07;91.82
61357;BME280;47227;46.752;23.576;2023-11-18T07:57:47;95713.54;;;1.04;92.04
61357;BME280;47227;46.752;23.576;2023-11-18T08:00:15;95712.31;;;0.99;92.22
61357;BME280;47227;46.752;23.576;2023-11-18T08:02:44;95718.11;;;0.95;92.42
61357;BME280;47227;46.752;23.576;2023-11-18T08:05:13;95721.43;;;0.91;92.68
61357;BME280;47227;46.752;23.576;2023-11-18T08:07:44;95723.39;;;0.93;92.70
61357;BME280;47227;46.752;23.576;2023-11-18T08:10:13;95728.73;;;0.96;92.94
61357;BME280;47227;46.752;23.576;2023-11-18T08:12:47;95733.38;;;0.96;92.90
61357;BME280;47227;46.752;23.576;2023-11-18T08:15:16;95730.59;;;0.96;92.69
61357;BME280;47227;46.752;23.576;2023-11-18T08:17:44;95736.58;;;0.97;92.67
61357;BME280;47227;46.752;23.576;2023-11-18T08:20:13;95742.55;;;1.00;92.73
61357;BME280;47227;46.752;23.576;2023-11-18T08:22:44;95741.59;;;1.01;92.81
61357;BME280;47227;46.752;23.576;2023-11-18T08:25:13;95749.85;;;1.04;92.76
61357;BME280;47227;46.752;23.576;2023-11-18T08:27:45;95751.85;;;1.06;92.71
61357;BME280;47227;46.752;23.576;2023-11-18T08:30:14;95757.88;;;1.06;92.52
61357;BME280;47227;46.752;23.576;2023-11-18T08:32:46;95757.12;;;1.05;92.41
61357;BME280;47227;46.752;23.576;2023-11-18T08:35:16;95762.88;;;1.08;92.32
61357;BME280;47227;46.752;23.576;2023-11-18T08:37:44;95765.70;;;1.09;92.46
61357;BME280;47227;46.752;23.576;2023-11-18T08:40:16;95771.54;;;1.11;92.30
61357;BME280;47227;46.752;23.576;2023-11-18T08:42:51;95771.83;;;1.07;91.90
61357;BME280;47227;46.752;23.576;2023-11-18T08:45:22;95779.45;;;1.08;92.02
61357;BME280;47227;46.752;23.576;2023-11-18T08:47:56;95784.66;;;1.05;91.89
61357;BME280;47227;46.752;23.576;2023-11-18T08:50:25;95792.45;;;1.02;91.88
61357;BME280;47227;46.752;23.576;2023-11-18T08:52:55;95794.54;;;0.98;92.00
61357;BME280;47227;46.752;23.576;2023-11-18T08:55:28;95796.34;;;0.96;92.25
61357;BME280;47227;46.752;23.576;2023-11-18T08:58:11;95801.73;;;0.92;92.52
61357;BME280;47227;46.752;23.576;2023-11-18T09:00:52;95798.40;;;0.86;92.69
61357;BME280;47227;46.752;23.576;2023-11-18T09:03:24;95799.31;;;0.86;92.62
61357;BME280;47227;46.752;23.576;2023-11-18T09:05:56;95801.73;;;0.89;93.05
61357;BME280;47227;46.752;23.576;2023-11-18T09:08:27;95800.77;;;0.88;93.29
61357;BME280;47227;46.752;23.576;2023-11-18T09:10:58;95806.66;;;0.88;93.18
61357;BME280;47227;46.752;23.576;2023-11-18T09:13:28;95805.66;;;0.86;93.37
61357;BME280;47227;46.752;23.576;2023-11-18T09:16:04;95809.16;;;0.89;93.37
61357;BME280;47227;46.752;23.576;2023-11-18T09:18:38;95807.38;;;0.91;93.00
61357;BME280;47227;46.752;23.576;2023-11-18T09:21:11;95814.33;;;0.89;92.84
61357;BME280;47227;46.752;23.576;2023-11-18T09:23:44;95814.20;;;0.88;92.91
61357;BME280;47227;46.752;23.576;2023-11-18T09:26:13;95816.06;;;0.86;92.91
61357;BME280;47227;46.752;23.576;2023-11-18T09:28:43;95816.83;;;0.85;93.00
61357;BME280;47227;46.752;23.576;2023-11-18T09:31:14;95820.13;;;0.83;92.88
61357;BME280;47227;46.752;23.576;2023-11-18T09:33:45;95819.64;;;0.84;92.91
61357;BME280;47227;46.752;23.576;2023-11-18T09:36:21;95819.56;;;0.88;93.16
61357;BME280;47227;46.752;23.576;2023-11-18T09:38:51;95826.27;;;0.86;93.05
61357;BME280;47227;46.752;23.576;2023-11-18T09:41:22;95824.61;;;0.83;93.14
61357;BME280;47227;46.752;23.576;2023-11-18T09:43:53;95828.19;;;0.86;93.13
61357;BME280;47227;46.752;23.576;2023-11-18T09:46:26;95821.80;;;0.84;93.04
61357;BME280;47227;46.752;23.576;2023-11-18T09:51:44;95834.09;;;0.77;93.03
61357;BME280;47227;46.752;23.576;2023-11-18T10:00:02;95843.02;;;0.74;93.70
61357;BME280;47227;46.752;23.576;2023-11-18T10:02:55;95842.02;;;0.71;94.10
61357;BME280;47227;46.752;23.576;2023-11-18T10:05:26;95841.81;;;0.69;94.30
61357;BME280;47227;46.752;23.576;2023-11-18T10:07:56;95848.96;;;0.70;94.75
61357;BME280;47227;46.752;23.576;2023-11-18T10:10:26;95846.42;;;0.69;94.60
61357;BME280;47227;46.752;23.576;2023-11-18T10:13:05;95844.20;;;0.72;94.46
61357;BME280;47227;46.752;23.576;2023-11-18T10:15:37;95847.18;;;0.74;94.47
61357;BME280;47227;46.752;23.576;2023-11-18T10:18:08;95848.50;;;0.77;94.33
61357;BME280;47227;46.752;23.576;2023-11-18T10:20:49;95846.60;;;0.78;94.21
61357;BME280;47227;46.752;23.576;2023-11-18T10:23:27;95846.05;;;0.81;94.25
61357;BME280;47227;46.752;23.576;2023-11-18T10:25:58;95845.19;;;0.85;94.22
61357;BME280;47227;46.752;23.576;2023-11-18T10:28:27;95851.23;;;0.90;94.24
61357;BME280;47227;46.752;23.576;2023-11-18T10:30:57;95848.33;;;0.91;94.00
61357;BME280;47227;46.752;23.576;2023-11-18T10:33:26;95852.70;;;0.93;93.76
61357;BME280;47227;46.752;23.576;2023-11-18T10:36:00;95854.92;;;0.94;93.71
61357;BME280;47227;46.752;23.576;2023-11-18T10:38:37;95860.80;;;0.97;93.81
61357;BME280;47227;46.752;23.576;2023-11-18T10:41:07;95860.96;;;0.97;93.46
61357;BME280;47227;46.752;23.576;2023-11-18T10:43:36;95866.48;;;0.97;93.31
61357;BME280;47227;46.752;23.576;2023-11-18T10:46:09;95867.20;;;0.96;93.18
61357;BME280;47227;46.752;23.576;2023-11-18T10:48:49;95869.34;;;0.94;92.69
61357;BME280;47227;46.752;23.576;2023-11-18T10:51:18;95870.24;;;0.90;92.77
61357;BME280;47227;46.752;23.576;2023-11-18T10:53:50;95874.81;;;0.88;93.01
61357;BME280;47227;46.752;23.576;2023-11-18T10:56:28;95880.38;;;0.86;92.99
61357;BME280;47227;46.752;23.576;2023-11-18T10:59:07;95876.05;;;0.83;93.34
61357;BME280;47227;46.752;23.576;2023-11-18T11:01:37;95872.14;;;0.82;93.27
61357;BME280;47227;46.752;23.576;2023-11-18T11:04:12;95877.16;;;0.83;93.47
61357;BME280;47227;46.752;23.576;2023-11-18T11:06:46;95878.42;;;0.82;93.81
61357;BME280;47227;46.752;23.576;2023-11-18T11:09:21;95877.04;;;0.81;94.07
61357;BME280;47227;46.752;23.576;2023-11-18T11:11:57;95884.90;;;0.83;94.25
61357;BME280;47227;46.752;23.576;2023-11-18T11:14:39;95882.67;;;0.84;94.19
61357;BME280;47227;46.752;23.576;2023-11-18T11:17:17;95881.81;;;0.87;93.87
61357;BME280;47227;46.752;23.576;2023-11-18T11:20:06;95880.77;;;0.90;93.88
61357;BME280;47227;46.752;23.576;2023-11-18T11:26:06;95896.95;;;0.98;94.00
61357;BME280;47227;46.752;23.576;2023-11-18T11:28:45;95895.88;;;0.96;93.49
61357;BME280;47227;46.752;23.576;2023-11-18T11:34:09;95903.20;;;1.02;93.32
61357;BME280;47227;46.752;23.576;2023-11-18T11:36:46;95906.86;;;1.04;93.31
61357;BME280;47227;46.752;23.576;2023-11-18T11:39:18;95907.98;;;1.06;93.09
61357;BME280;47227;46.752;23.576;2023-11-18T11:41:54;95917.05;;;1.08;93.25
61357;BME280;47227;46.752;23.576;2023-11-18T11:44:25;95916.96;;;1.08;93.18
61357;BME280;47227;46.752;23.576;2023-11-18T11:47:00;95921.58;;;1.10;93.03
61357;BME280;47227;46.752;23.576;2023-11-18T11:49:38;95929.89;;;1.10;92.78
61357;BME280;47227;46.752;23.576;2023-11-18T11:54:51;95937.19;;;1.06;92.81
61357;BME280;47227;46.752;23.576;2023-11-18T11:57:24;95936.11;;;1.07;92.71
61357;BME280;47227;46.752;23.576;2023-11-18T12:00:03;95939.37;;;1.04;92.62
61357;BME280;47227;46.752;23.576;2023-11-18T12:02:50;95941.95;;;1.03;92.79
61357;BME280;47227;46.752;23.576;2023-11-18T12:05:24;95949.52;;;0.99;92.83
61357;BME280;47227;46.752;23.576;2023-11-18T12:07:55;95950.23;;;0.96;93.03
61357;BME280;47227;46.752;23.576;2023-11-18T12:10:30;95951.71;;;0.93;93.06
61357;BME280;47227;46.752;23.576;2023-11-18T12:13:12;95956.09;;;0.89;93.25
61357;BME280;47227;46.752;23.576;2023-11-18T12:15:53;95958.86;;;0.85;93.46
61357;BME280;47227;46.752;23.576;2023-11-18T12:18:33;95961.46;;;0.82;93.52
61357;BME280;47227;46.752;23.576;2023-11-18T12:21:04;95961.10;;;0.81;93.95
61357;BME280;47227;46.752;23.576;2023-11-18T12:23:33;95963.72;;;0.80;93.87
61357;BME280;47227;46.752;23.576;2023-11-18T12:26:38;95970.20;;;0.81;93.92
61357;BME280;47227;46.752;23.576;2023-11-18T12:29:32;95967.73;;;0.81;94.10
61357;BME280;47227;46.752;23.576;2023-11-18T12:32:02;95974.10;;;0.84;94.07
61357;BME280;47227;46.752;23.576;2023-11-18T12:34:51;95980.58;;;0.83;93.89
61357;BME280;47227;46.752;23.576;2023-11-18T12:45:53;95995.98;;;0.95;93.82
61357;BME280;47227;46.752;23.576;2023-11-18T12:48:30;95989.42;;;0.95;93.48
61357;BME280;47227;46.752;23.576;2023-11-18T12:51:00;95993.13;;;0.96;93.72
61357;BME280;47227;46.752;23.576;2023-11-18T12:53:29;95998.19;;;0.96;93.72
61357;BME280;47227;46.752;23.576;2023-11-18T12:55:59;96000.23;;;0.95;93.51
61357;BME280;47227;46.752;23.576;2023-11-18T12:58:30;96007.63;;;0.95;93.55
61357;BME280;47227;46.752;23.576;2023-11-18T13:01:01;96007.67;;;0.96;93.33
61357;BME280;47227;46.752;23.576;2023-11-18T13:03:31;96010.78;;;0.99;93.28
61357;BME280;47227;46.752;23.576;2023-11-18T13:06:00;96013.56;;;0.99;93.20
61357;BME280;47227;46.752;23.576;2023-11-18T13:08:28;96015.42;;;0.96;92.88
61357;BME280;47227;46.752;23.576;2023-11-18T13:10:57;96022.44;;;0.94;93.11
61357;BME280;47227;46.752;23.576;2023-11-18T13:13:34;96022.46;;;0.90;93.23
61357;BME280;47227;46.752;23.576;2023-11-18T13:16:04;96031.15;;;0.86;93.37
61357;BME280;47227;46.752;23.576;2023-11-18T13:18:44;96035.66;;;0.83;93.27
61357;BME280;47227;46.752;23.576;2023-11-18T13:21:16;96039.80;;;0.80;93.55
61357;BME280;47227;46.752;23.576;2023-11-18T13:23:49;96043.35;;;0.78;93.87
61357;BME280;47227;46.752;23.576;2023-11-18T13:26:21;96046.39;;;0.74;93.92
61357;BME280;47227;46.752;23.576;2023-11-18T13:28:50;96047.33;;;0.74;94.08
61357;BME280;47227;46.752;23.576;2023-11-18T13:31:19;96052.72;;;0.72;94.41
61357;BME280;47227;46.752;23.576;2023-11-18T13:33:48;96056.21;;;0.71;94.47
61357;BME280;47227;46.752;23.576;2023-11-18T13:36:17;96057.84;;;0.71;94.39
61357;BME280;47227;46.752;23.576;2023-11-18T13:38:47;96063.36;;;0.72;94.43
61357;BME280;47227;46.752;23.576;2023-11-18T13:41:30;96066.72;;;0.76;94.59
61357;BME280;47227;46.752;23.576;2023-11-18T13:44:00;96071.08;;;0.78;94.57
61357;BME280;47227;46.752;23.576;2023-11-18T13:46:29;96076.36;;;0.80;94.73